Time;durP1;ratioP1;P1;durP2;ratioP2;P2;SDS_P1;SDS_P2;PMS_P1;PMS_P2;Temp;Humidity;BMP_temperature;BMP_pressure;BME280_temperature;BME280_humidity;BME280_pressure;Samples;Min_cycle;Max_cycle;Signal;HPM_P1;HPM_P2
2022/10/14 00:01:17;;;;;;;27.85;18.60;;;;;;;3.92;100.00;100225.48;1726910;83;21660;-70
2022/10/14 00:03:44;;;;;;;32.17;19.12;;;;;;;3.95;100.00;100220.77;1726765;83;20966;-70
2022/10/14 00:06:19;;;;;;;25.17;17.30;;;;;;;3.96;100.00;100211.75;1727041;83;22092;-70
2022/10/14 00:08:49;;;;;;;25.08;16.93;;;;;;;3.97;100.00;100217.76;1726929;83;21428;-69
2022/10/14 00:11:18;;;;;;;26.20;18.35;;;;;;;3.97;100.00;100213.47;1726860;83;20954;-69
2022/10/14 00:13:45;;;;;;;28.67;19.95;;;;;;;3.94;100.00;100210.90;1727205;83;21438;-70
2022/10/14 00:16:27;;;;;;;31.02;20.23;;;;;;;3.93;100.00;100214.77;1727159;83;21502;-70
2022/10/14 00:18:54;;;;;;;31.77;21.37;;;;;;;3.93;100.00;100213.05;1726842;83;21219;-69
2022/10/14 00:21:20;;;;;;;30.95;20.30;;;;;;;3.94;100.00;100211.33;1726856;83;21001;-70
2022/10/14 00:23:47;;;;;;;34.15;19.23;;;;;;;3.96;100.00;100208.32;1726885;83;20962;-70
2022/10/14 00:26:21;;;;;;;32.05;18.65;;;;;;;4.00;100.00;100210.00;1726936;83;21026;-70
2022/10/14 00:28:48;;;;;;;29.02;18.50;;;;;;;4.05;100.00;100209.56;1698173;83;21084;-70
2022/10/14 00:31:15;;;;;;;27.70;17.25;;;;;;;4.08;100.00;100210.41;1727032;83;21439;-70
2022/10/14 00:33:43;;;;;;;32.45;19.15;;;;;;;4.13;100.00;100213.84;1727074;83;20973;-70
2022/10/14 00:36:13;;;;;;;22.70;17.62;;;;;;;4.18;100.00;100210.40;1726920;83;20982;-70
2022/10/14 00:38:40;;;;;;;30.90;16.85;;;;;;;4.22;100.00;100203.91;1726929;82;21006;-70
2022/10/14 00:41:07;;;;;;;23.00;16.10;;;;;;;4.28;100.00;100203.90;1726938;83;21002;-69
2022/10/14 00:44:07;;;;;;;24.32;16.65;;;;;;;4.33;100.00;100206.46;1719552;83;21961;-70
2022/10/14 00:46:37;;;;;;;25.65;16.30;;;;;;;4.36;100.00;100200.02;1710431;83;20967;-70
2022/10/14 00:49:29;;;;;;;22.07;14.73;;;;;;;4.39;100.00;100197.44;1714063;83;21453;-70
2022/10/14 00:52:01;;;;;;;22.90;14.05;;;;;;;4.43;100.00;100193.95;1713902;83;21451;-70
2022/10/14 00:54:37;;;;;;;25.10;13.93;;;;;;;4.46;100.00;100197.80;1714427;83;21105;-70
2022/10/14 00:57:05;;;;;;;24.85;14.85;;;;;;;4.48;100.00;100193.07;1692568;83;21869;-70
2022/10/14 00:59:32;;;;;;;20.82;15.35;;;;;;;4.50;100.00;100193.92;1713886;83;21443;-70
2022/10/14 01:01:59;;;;;;;26.27;16.97;;;;;;;4.53;100.00;100189.19;1713806;83;21058;-70
2022/10/14 01:04:25;;;;;;;28.05;17.70;;;;;;;4.59;100.00;100190.45;1713932;83;21447;-70
2022/10/14 01:07:01;;;;;;;26.35;16.85;;;;;;;4.66;100.00;100191.25;1693699;83;21470;-70
2022/10/14 01:09:50;;;;;;;27.98;16.75;;;;;;;4.71;100.00;100186.94;1714378;83;21088;-70
2022/10/14 01:12:38;;;;;;;26.00;17.60;;;;;;;4.73;100.00;100180.91;1713959;83;21534;-70
2022/10/14 01:15:28;;;;;;;24.43;16.62;;;;;;;4.75;100.00;100183.05;1713964;83;21010;-70
2022/10/14 01:18:39;;;;;;;21.82;14.10;;;;;;;4.75;100.00;100182.19;1698028;83;20983;-70
2022/10/14 01:21:29;;;;;;;19.00;13.32;;;;;;;4.74;100.00;100184.34;1714259;83;21411;-70
2022/10/14 01:24:04;;;;;;;17.98;12.18;;;;;;;4.73;100.00;100184.77;1713801;83;21040;-70
2022/10/14 01:26:40;;;;;;;22.35;11.50;;;;;;;4.72;100.00;100191.22;1711833;83;21022;-70
2022/10/14 01:29:37;;;;;;;19.77;12.80;;;;;;;4.72;100.00;100183.06;1713958;83;21006;-70
2022/10/14 01:32:15;;;;;;;20.40;13.90;;;;;;;4.71;100.00;100186.50;1695902;83;21018;-70
2022/10/14 01:34:50;;;;;;;20.70;13.50;;;;;;;4.71;100.00;100180.06;1712544;83;21061;-70
2022/10/14 01:37:22;;;;;;;21.87;13.62;;;;;;;4.71;100.00;100185.64;1713786;83;22146;-70
2022/10/14 01:39:56;;;;;;;15.72;10.93;;;;;;;4.68;100.00;100183.94;1713780;83;21546;-70
2022/10/14 01:42:27;;;;;;;15.25;10.20;;;;;;;4.64;100.00;100182.67;1713834;83;21466;-70
2022/10/14 01:45:14;;;;;;;17.50;9.35;;;;;;;4.60;100.00;100177.11;1726276;83;20978;-70
2022/10/14 01:47:40;;;;;;;16.25;10.25;;;;;;;4.56;100.00;100179.30;1722789;83;21002;-70
2022/10/14 01:50:12;;;;;;;19.02;10.30;;;;;;;4.50;100.00;100177.61;1727057;83;21144;-70
2022/10/14 01:52:49;;;;;;;20.15;10.82;;;;;;;4.45;100.00;100183.20;1723677;83;21010;-70
2022/10/14 01:55:20;;;;;;;16.32;9.85;;;;;;;4.37;100.00;100174.69;1720401;83;20994;-70
2022/10/14 01:57:47;;;;;;;17.75;10.82;;;;;;;4.32;100.00;100175.13;1727023;83;21093;-70
2022/10/14 02:00:15;;;;;;;17.25;10.63;;;;;;;4.26;100.00;100172.58;1727005;83;21010;-70
2022/10/14 02:02:42;;;;;;;18.62;10.65;;;;;;;4.19;100.00;100169.63;1726976;83;21110;-70
2022/10/14 02:05:14;;;;;;;17.80;10.40;;;;;;;4.13;100.00;100171.36;1726960;83;21057;-70
2022/10/14 02:07:44;;;;;;;17.23;12.13;;;;;;;4.09;100.00;100170.94;1719337;83;21049;-70
2022/10/14 02:10:34;;;;;;;20.57;11.70;;;;;;;4.03;100.00;100173.96;1726939;83;21495;-70
2022/10/14 02:13:59;;;;;;;17.62;11.28;;;;;;;3.97;100.00;100172.29;1721961;83;21001;-70
2022/10/14 02:16:43;;;;;;;18.12;10.70;;;;;;;3.91;100.00;100172.73;1668573;85;21259;-70
2022/10/14 02:19:30;;;;;;;19.57;11.20;;;;;;;3.83;100.00;100167.59;1668546;86;21087;-70
2022/10/14 02:22:38;;;;;;;18.50;11.35;;;;;;;3.79;100.00;100171.06;1718905;83;21439;-70
2022/10/14 02:25:17;;;;;;;15.38;9.40;;;;;;;3.74;100.00;100166.35;1726937;83;20966;-70
2022/10/14 02:27:44;;;;;;;16.62;9.75;;;;;;;3.69;100.00;100166.79;1726959;83;20954;-70
2022/10/14 02:30:12;;;;;;;14.93;9.25;;;;;;;3.63;100.00;100171.51;1698214;83;21149;-70
2022/10/14 02:32:39;;;;;;;16.85;10.43;;;;;;;3.59;100.00;100165.11;1726917;83;21006;-70
2022/10/14 02:35:09;;;;;;;22.77;11.57;;;;;;;3.56;100.00;100167.69;1726989;83;21447;-70
2022/10/14 02:37:36;;;;;;;20.88;13.08;;;;;;;3.53;100.00;100172.83;1726897;83;20982;-70
2022/10/14 02:40:08;;;;;;;17.90;13.35;;;;;;;3.48;100.00;100172.83;1727120;83;21426;-70
2022/10/14 02:42:35;;;;;;;18.75;14.10;;;;;;;3.41;100.00;100162.97;1698495;83;21149;-70
2022/10/14 02:45:05;;;;;;;24.35;14.65;;;;;;;3.36;100.00;100171.15;1726842;83;21430;-70
2022/10/14 02:47:32;;;;;;;24.63;15.03;;;;;;;3.31;100.00;100170.29;1726880;83;21013;-70
2022/10/14 02:49:59;;;;;;;27.73;16.37;;;;;;;3.26;100.00;100173.71;1726862;83;21037;-70
2022/10/14 02:52:25;;;;;;;27.00;15.78;;;;;;;3.22;100.00;100173.28;1727110;83;21430;-70
2022/10/14 02:54:53;;;;;;;26.42;15.95;;;;;;;3.18;100.00;100171.16;1726971;83;22607;-70
2022/10/14 02:57:21;;;;;;;20.55;13.25;;;;;;;3.14;100.00;100169.88;1698195;83;21066;-70
2022/10/14 02:59:49;;;;;;;25.85;15.98;;;;;;;3.09;100.00;100169.87;1726881;83;21549;-70
2022/10/14 03:02:15;;;;;;;24.57;14.80;;;;;;;3.04;100.00;100166.44;1726915;83;21009;-70
2022/10/14 03:04:42;;;;;;;24.45;15.65;;;;;;;2.99;100.00;100165.59;1727105;83;21103;-70
2022/10/14 03:07:09;;;;;;;24.05;15.20;;;;;;;2.95;100.00;100160.88;1726965;83;21162;-70
2022/10/14 03:09:38;;;;;;;22.17;12.85;;;;;;;2.92;100.00;100160.02;1726651;83;20981;-70
2022/10/14 03:12:06;;;;;;;18.45;12.35;;;;;;;2.88;100.00;100160.44;1726971;83;21009;-70
2022/10/14 03:14:34;;;;;;;21.42;12.95;;;;;;;2.87;100.00;100165.58;1726839;83;21002;-70
2022/10/14 03:17:03;;;;;;;22.42;13.78;;;;;;;2.84;100.00;100163.00;1726990;83;21037;-70
2022/10/14 03:19:32;;;;;;;27.85;14.38;;;;;;;2.79;100.00;100156.59;1726852;83;21253;-70
2022/10/14 03:21:59;;;;;;;18.57;13.90;;;;;;;2.78;100.00;100164.30;1726860;83;21050;-70
2022/10/14 03:24:25;;;;;;;17.73;12.33;;;;;;;2.73;100.00;100168.14;1726870;83;20962;-70
2022/10/14 03:26:54;;;;;;;16.10;10.30;;;;;;;2.69;100.00;100170.27;1708519;83;21010;-70
2022/10/14 03:29:22;;;;;;;13.18;8.53;;;;;;;2.64;100.00;100165.12;1726805;83;20994;-70
2022/10/14 03:31:53;;;;;;;17.10;9.48;;;;;;;2.60;100.00;100171.55;1726359;83;21342;-70
2022/10/14 03:34:28;;;;;;;15.55;8.53;;;;;;;2.60;100.00;100173.66;1722171;83;21041;-70
2022/10/14 03:36:56;;;;;;;12.78;8.48;;;;;;;2.60;100.00;100167.70;1725585;83;21467;-70
2022/10/14 03:39:24;;;;;;;14.07;7.50;;;;;;;2.58;100.00;100165.55;1727005;83;20950;-70
2022/10/14 03:41:51;;;;;;;11.50;6.92;;;;;;;2.56;100.00;100165.97;1726810;83;21517;-70
2022/10/14 03:44:20;;;;;;;11.95;7.95;;;;;;;2.55;100.00;100166.41;1720346;83;21166;-70
2022/10/14 03:46:50;;;;;;;12.90;7.80;;;;;;;2.55;100.00;100164.27;1710741;83;21506;-70
2022/10/14 03:49:16;;;;;;;18.05;8.63;;;;;;;2.56;100.00;100173.68;1713934;83;21443;-70
2022/10/14 03:51:43;;;;;;;48.33;10.30;;;;;;;2.58;100.00;100168.12;1713828;83;20959;-69
2022/10/14 03:54:15;;;;;;;16.40;8.33;;;;;;;2.59;100.00;100171.12;1713385;83;20950;-69
2022/10/14 03:56:41;;;;;;;17.82;7.87;;;;;;;2.57;100.00;100171.55;1713827;83;21135;-69
2022/10/14 03:59:08;;;;;;;18.30;9.38;;;;;;;2.55;100.00;100177.10;1713837;83;21586;-69
2022/10/14 04:01:35;;;;;;;18.37;8.93;;;;;;;2.53;100.00;100174.52;1713918;83;21463;-69
2022/10/14 04:04:16;;;;;;;13.45;7.45;;;;;;;2.51;100.00;100181.79;1713362;83;20959;-69
2022/10/14 04:06:44;;;;;;;19.05;8.13;;;;;;;2.48;100.00;100178.78;1713785;83;20947;-69
2022/10/14 04:09:11;;;;;;;17.90;7.70;;;;;;;2.46;100.00;100179.20;1713816;83;21871;-69
2022/10/14 04:11:39;;;;;;;10.23;6.33;;;;;;;2.44;100.00;100178.34;1713659;83;21058;-69
2022/10/14 04:14:09;;;;;;;12.28;7.03;;;;;;;2.43;100.00;100176.20;1713818;83;21496;-69
2022/10/14 04:16:39;;;;;;;12.37;7.00;;;;;;;2.43;100.00;100170.20;1713273;83;21074;-69
2022/10/14 04:19:08;;;;;;;15.38;7.15;;;;;;;2.44;100.00;100171.92;1713393;83;20950;-69
2022/10/14 04:21:36;;;;;;;10.75;6.42;;;;;;;2.44;100.00;100179.63;1713857;83;20955;-69
2022/10/14 04:24:03;;;;;;;9.90;6.53;;;;;;;2.44;100.00;100179.63;1713785;83;21005;-69
2022/10/14 04:26:32;;;;;;;13.22;7.05;;;;;;;2.43;100.00;100172.77;1710776;83;21039;-69
2022/10/14 04:28:59;;;;;;;10.90;7.00;;;;;;;2.43;100.00;100172.34;1713933;83;21030;-69
2022/10/14 04:31:30;;;;;;;19.48;8.78;;;;;;;2.45;100.00;100181.77;1713588;83;21074;-69
2022/10/14 04:33:59;;;;;;;12.90;6.92;;;;;;;2.44;100.00;100166.79;1713653;83;21176;-69
2022/10/14 04:36:27;;;;;;;16.95;7.35;;;;;;;2.48;100.00;100169.80;1713523;83;21006;-69
2022/10/14 04:38:55;;;;;;;14.33;7.12;;;;;;;2.49;100.00;100168.09;1713880;83;20943;-69
2022/10/14 04:41:22;;;;;;;15.25;7.53;;;;;;;2.48;100.00;100163.38;1713950;83;20998;-69
2022/10/14 04:43:49;;;;;;;21.90;8.50;;;;;;;2.48;100.00;100168.94;1713138;83;21093;-69
2022/10/14 04:46:17;;;;;;;21.82;6.65;;;;;;;2.49;100.00;100162.95;1708782;83;21169;-69
2022/10/14 04:48:47;;;;;;;36.85;8.15;;;;;;;2.51;100.00;100170.23;1709206;84;21529;-69
2022/10/14 04:51:14;;;;;;;28.98;10.10;;;;;;;2.54;100.00;100165.11;1709358;84;20995;-69
2022/10/14 04:53:59;;;;;;;12.25;8.15;;;;;;;2.55;100.00;100166.83;1709369;83;21047;-69
2022/10/14 04:56:36;;;;;;;13.58;8.58;;;;;;;2.60;100.00;100165.95;1705839;84;20963;-69
2022/10/14 04:59:04;;;;;;;22.93;9.68;;;;;;;2.67;100.00;100160.41;1709041;84;21609;-69
2022/10/14 05:01:51;;;;;;;39.50;9.85;;;;;;;2.72;100.00;100165.14;1709480;84;21006;-69
2022/10/14 05:04:19;;;;;;;35.92;9.28;;;;;;;2.76;100.00;100162.58;1707699;83;21048;-69
2022/10/14 05:06:48;;;;;;;17.00;9.48;;;;;;;2.81;100.00;100165.13;1661771;85;20959;-69
2022/10/14 05:09:16;;;;;;;10.98;7.60;;;;;;;2.88;100.00;100163.44;1650370;87;21062;-69
2022/10/14 05:11:43;;;;;;;23.18;11.10;;;;;;;2.95;100.00;100164.73;1650253;86;21144;-69
2022/10/14 05:14:11;;;;;;;21.60;11.20;;;;;;;3.01;100.00;100171.56;1634921;87;21571;-70
2022/10/14 05:16:40;;;;;;;82.35;41.48;;;;;;;3.08;100.00;100165.16;1633610;87;21022;-70
2022/10/14 05:19:08;;;;;;;77.27;36.88;;;;;;;3.15;100.00;100169.02;1613322;88;21012;-70
2022/10/14 05:21:36;;;;;;;42.20;24.10;;;;;;;3.19;100.00;100168.17;1662997;86;20974;-71
2022/10/14 05:24:08;;;;;;;20.23;10.28;;;;;;;3.24;100.00;100168.99;1674737;85;22077;-72
2022/10/14 05:26:36;;;;;;;20.60;16.42;;;;;;;3.32;100.00;100166.00;1683689;85;20963;-71
2022/10/14 05:29:10;;;;;;;21.52;12.23;;;;;;;3.37;100.00;100173.29;1683729;83;20967;-71
2022/10/14 05:31:49;;;;;;;19.92;10.98;;;;;;;3.45;100.00;100179.26;1661259;85;21486;-71
2022/10/14 05:34:37;;;;;;;16.87;11.25;;;;;;;3.53;100.00;100174.12;1682864;85;21006;-72
2022/10/14 05:37:07;;;;;;;42.85;38.60;;;;;;;3.59;100.00;100178.83;1661671;85;21881;-71
2022/10/14 05:39:40;;;;;;;30.05;27.20;;;;;;;3.65;100.00;100181.37;1684658;85;20986;-72
2022/10/14 05:45:35;;;;;;;11.05;9.10;;;;;;;3.74;100.00;100182.65;1686754;85;21032;-71
2022/10/14 05:48:04;;;;;;;8.63;7.65;;;;;;;3.83;100.00;100186.03;1680041;85;21537;-71
2022/10/14 05:50:32;;;;;;;8.50;7.20;;;;;;;3.91;100.00;100183.88;1678530;85;21779;-72
2022/10/14 05:53:01;;;;;;;8.70;7.75;;;;;;;3.97;100.00;100183.88;1678907;85;20991;-73
2022/10/14 05:55:32;;;;;;;9.40;6.05;;;;;;;4.04;100.00;100185.54;1678176;85;21069;-73
2022/10/14 05:58:02;;;;;;;8.63;7.78;;;;;;;4.13;100.00;100187.23;1679396;85;21050;-74
2022/10/14 06:00:31;;;;;;;16.40;7.87;;;;;;;4.19;100.00;100184.65;1678969;85;21034;-73
2022/10/14 06:02:59;;;;;;;12.90;7.67;;;;;;;4.30;100.00;100184.16;1677536;85;21090;-73
2022/10/14 06:05:27;;;;;;;10.60;9.50;;;;;;;4.40;100.00;100179.80;1678316;85;21413;-73
2022/10/14 06:07:55;;;;;;;13.78;7.72;;;;;;;4.49;100.00;100183.63;1678558;85;21090;-73
2022/10/14 06:10:28;;;;;;;12.07;7.83;;;;;;;4.60;100.00;100186.13;1678407;85;21514;-73
2022/10/14 06:13:00;;;;;;;12.40;9.28;;;;;;;4.69;100.00;100192.09;1677717;85;21069;-72
2022/10/14 06:15:31;;;;;;;10.58;7.95;;;;;;;4.79;100.00;100188.61;1678136;83;21094;-72
2022/10/14 06:18:05;;;;;;;16.87;9.18;;;;;;;4.89;100.00;100190.67;1676984;85;21014;-72
2022/10/14 06:20:36;;;;;;;13.40;8.20;;;;;;;5.00;100.00;100188.86;1630082;86;21026;-72
2022/10/14 06:23:04;;;;;;;13.78;8.60;;;;;;;5.11;100.00;100191.38;1650636;86;21074;-72
2022/10/14 06:25:34;;;;;;;10.38;7.55;;;;;;;5.19;100.00;100192.18;1663531;85;21065;-73
2022/10/14 06:28:08;;;;;;;14.70;8.50;;;;;;;5.27;100.00;100190.38;1655366;85;21251;-73
2022/10/14 06:30:39;;;;;;;16.12;11.97;;;;;;;5.36;100.00;100187.73;1678342;83;21050;-73
2022/10/14 06:33:10;;;;;;;14.30;10.48;;;;;;;5.47;100.00;100188.91;1678451;85;21010;-73
2022/10/14 06:35:40;;;;;;;13.40;9.48;;;;;;;5.62;100.00;100184.02;1678049;85;21110;-74
2022/10/14 06:38:15;;;;;;;15.20;8.38;;;;;;;5.78;100.00;100181.30;1679217;85;21049;-74
2022/10/14 06:40:57;;;;;;;14.83;9.30;;;;;;;5.94;100.00;100188.90;1679227;85;21179;-74
2022/10/14 06:43:37;;;;;;;19.80;9.55;;;;;;;6.10;100.00;100190.42;1678442;85;21102;-74
2022/10/14 06:46:18;;;;;;;15.32;8.98;;;;;;;6.23;100.00;100188.95;1666884;85;21530;-74
2022/10/14 06:48:53;;;;;;;17.17;9.08;;;;;;;6.41;100.00;100189.59;1664670;85;21018;-73
2022/10/14 06:51:25;;;;;;;17.62;9.60;;;;;;;6.54;100.00;100184.27;1666142;85;21015;-74
2022/10/14 06:53:58;;;;;;;16.57;9.30;;;;;;;6.69;100.00;100187.50;1665555;85;21244;-75
2022/10/14 06:56:27;;;;;;;13.25;8.03;;;;;;;6.83;100.00;100185.13;1671418;85;21015;-74
2022/10/14 06:58:57;;;;;;;13.72;8.48;;;;;;;6.99;100.00;100187.50;1664486;85;21562;-72
2022/10/14 07:01:31;;;;;;;20.52;9.60;;;;;;;7.15;100.00;100185.08;1667558;85;20998;-71
2022/10/14 07:04:15;;;;;;;16.85;8.38;;;;;;;7.30;100.00;100179.64;1664343;85;21071;-72
2022/10/14 07:06:48;;;;;;;13.22;7.15;;;;;;;7.48;100.00;100179.33;1680832;85;21364;-72
2022/10/14 07:09:15;;;;;;;14.83;8.10;;;;;;;7.67;100.00;100182.44;1673010;85;20947;-71
2022/10/14 07:11:45;;;;;;;16.90;8.00;;;;;;;7.82;100.00;100186.47;1673266;85;20971;-71
2022/10/14 07:14:18;;;;;;;11.80;7.80;;;;;;;7.98;100.00;100189.64;1673347;85;21050;-71
2022/10/14 07:16:49;;;;;;;12.43;6.90;;;;;;;8.11;100.00;100188.51;1673169;85;21019;-73
2022/10/14 07:19:23;;;;;;;13.98;7.83;;;;;;;8.24;100.00;100186.92;1673340;85;21124;-71
2022/10/14 07:21:55;;;;;;;14.87;8.15;;;;;;;8.38;100.00;100181.95;1673173;85;20995;-72
2022/10/14 07:24:25;;;;;;;11.85;7.53;;;;;;;8.51;100.00;100179.05;1673346;85;20999;-73
2022/10/14 07:27:01;;;;;;;17.32;8.98;;;;;;;8.66;100.00;100176.55;1669599;85;21585;-73
2022/10/14 07:29:33;;;;;;;10.82;6.67;;;;;;;8.80;100.00;100175.78;1673281;85;21071;-73
2022/10/14 07:32:10;;;;;;;8.75;6.12;;;;;;;8.93;100.00;100182.42;1674205;85;21515;-73
2022/10/14 07:34:40;;;;;;;10.20;6.12;;;;;;;9.08;100.00;100176.45;1675716;84;21015;-74
2022/10/14 07:37:07;;;;;;;13.72;8.08;;;;;;;9.19;100.00;100175.76;1681135;84;21573;-72
2022/10/14 07:39:41;;;;;;;12.37;6.28;;;;;;;9.30;100.00;100173.30;1679239;85;21007;-72
2022/10/14 07:42:11;;;;;;;17.35;6.05;;;;;;;9.44;100.00;100168.19;1684167;84;21062;-73
2022/10/14 07:44:38;;;;;;;8.53;5.28;;;;;;;9.59;100.00;100169.11;1684675;83;21312;-72
2022/10/14 07:47:05;;;;;;;13.10;8.15;;;;;;;9.74;100.00;100165.25;1721756;83;21021;-73
2022/10/14 07:49:32;;;;;;;8.50;5.83;;;;;;;9.90;100.00;100161.33;1721842;83;21019;-73
2022/10/14 07:51:59;;;;;;;16.70;7.53;;;;;;;10.03;100.00;100159.63;1721264;81;21044;-73
2022/10/14 07:54:28;;;;;;;12.33;5.33;;;;;;;10.17;100.00;100159.27;1718730;82;21023;-73
2022/10/14 07:56:56;;;;;;;12.40;8.23;;;;;;;10.31;100.00;100158.44;1700066;83;21098;-73
2022/10/14 07:59:24;;;;;;;10.95;5.30;;;;;;;10.45;98.90;100157.16;1687319;85;20963;-73
2022/10/14 08:01:52;;;;;;;13.72;4.90;;;;;;;10.58;97.17;100155.47;1688269;85;21010;-73
2022/10/14 08:04:19;;;;;;;18.02;8.65;;;;;;;10.70;95.85;100157.67;1688019;85;21543;-74
2022/10/14 08:06:47;;;;;;;17.73;8.90;;;;;;;10.84;93.71;100156.38;1688230;85;20979;-73
2022/10/14 08:09:14;;;;;;;10.82;5.12;;;;;;;10.95;91.98;100153.01;1688258;85;21947;-72
2022/10/14 08:11:42;;;;;;;12.03;4.92;;;;;;;11.05;91.39;100156.55;1686842;85;21019;-74
2022/10/14 08:14:10;;;;;;;16.93;11.40;;;;;;;11.16;88.63;100155.37;1687960;85;21509;-70
2022/10/14 08:16:38;;;;;;;12.20;6.28;;;;;;;11.27;85.86;100154.55;1688111;85;21464;-72
2022/10/14 08:19:10;;;;;;;10.00;4.22;;;;;;;11.34;83.51;100150.39;1687838;85;21490;-74
2022/10/14 08:21:38;;;;;;;8.45;3.30;;;;;;;11.42;82.85;100149.27;1688888;85;21654;-74
2022/10/14 08:24:06;;;;;;;7.80;3.35;;;;;;;11.50;82.03;100146.81;1688278;83;21010;-72
2022/10/14 08:26:38;;;;;;;7.62;2.70;;;;;;;11.57;80.65;100144.41;1688098;85;21252;-73
2022/10/14 08:29:09;;;;;;;7.25;3.10;;;;;;;11.63;79.62;100140.26;1688597;85;21023;-72
2022/10/14 08:31:36;;;;;;;14.95;5.95;;;;;;;11.69;78.43;100137.90;1689620;83;21038;-70
2022/10/14 08:34:02;;;;;;;13.53;4.42;;;;;;;11.74;78.35;100135.98;1698119;83;21130;-74
2022/10/14 08:36:30;;;;;;;6.33;3.00;;;;;;;11.82;78.28;100137.88;1691533;83;21045;-75
2022/10/14 08:38:58;;;;;;;5.87;2.92;;;;;;;11.88;77.13;100129.85;1688833;83;21458;-73
2022/10/14 08:42:03;;;;;;;13.62;3.42;;;;;;;11.93;76.88;100131.84;1693325;83;20995;-73
2022/10/14 08:45:07;;;;;;;9.83;3.65;;;;;;;12.01;76.94;100132.84;1661649;86;21034;-73
2022/10/14 08:47:40;;;;;;;8.20;3.70;;;;;;;12.13;75.79;100125.89;1652502;86;21280;-70
2022/10/14 08:50:36;;;;;;;7.10;2.70;;;;;;;12.23;74.57;100128.53;1689399;83;21058;-72
2022/10/14 08:53:12;;;;;;;9.15;2.95;;;;;;;12.29;73.84;100124.41;1677134;85;20978;-71
2022/10/14 08:55:45;;;;;;;7.87;2.52;;;;;;;12.38;73.74;100120.16;1689396;85;21521;-72
2022/10/14 08:58:35;;;;;;;10.75;2.45;;;;;;;12.46;72.73;100127.67;1688625;85;20990;-70
2022/10/14 09:01:07;;;;;;;3.72;2.25;;;;;;;12.54;71.59;100127.38;1689792;85;21267;-72
2022/10/14 09:03:37;;;;;;;5.30;2.87;;;;;;;12.60;70.77;100125.81;1666124;85;20955;-72
2022/10/14 09:06:11;;;;;;;9.98;3.22;;;;;;;12.66;70.39;100125.13;1688006;85;21440;-72
2022/10/14 09:08:46;;;;;;;11.03;3.05;;;;;;;12.74;70.43;100127.45;1688256;85;20972;-73
2022/10/14 09:11:20;;;;;;;6.35;2.62;;;;;;;12.83;69.70;100127.52;1688205;85;21110;-72
2022/10/14 09:13:58;;;;;;;8.30;2.70;;;;;;;12.93;69.44;100124.95;1687400;85;21046;-72
2022/10/14 09:16:32;;;;;;;6.30;2.20;;;;;;;13.03;68.73;100125.80;1682631;83;21043;-71
2022/10/14 09:19:04;;;;;;;10.10;3.37;;;;;;;13.13;66.82;100125.44;1622433;87;21010;-73
2022/10/14 09:21:37;;;;;;;14.53;2.90;;;;;;;13.17;65.60;100120.05;1689044;85;21524;-73
2022/10/14 09:24:15;;;;;;;6.97;2.60;;;;;;;13.20;65.61;100125.58;1649140;87;21081;-72
2022/10/14 09:26:57;;;;;;;8.45;3.20;;;;;;;13.22;65.88;100128.98;1646417;86;50508;-73
2022/10/14 09:29:29;;;;;;;4.03;2.33;;;;;;;13.25;66.18;100119.72;1664070;85;20965;-72
2022/10/14 09:32:04;;;;;;;6.40;2.45;;;;;;;13.31;65.57;100122.08;1682156;85;21156;-73
2022/10/14 09:34:38;;;;;;;5.85;2.50;;;;;;;13.38;65.04;100120.46;1657738;86;21537;-72
2022/10/14 09:37:35;;;;;;;6.10;2.90;;;;;;;13.53;63.40;100121.56;1685359;83;26479;-71
2022/10/14 09:40:16;;;;;;;7.70;2.65;;;;;;;13.70;62.80;100110.36;1648546;87;21183;-71
2022/10/14 09:43:11;;;;;;;7.92;2.95;;;;;;;13.94;61.93;100115.81;1636834;87;21071;-70
2022/10/14 09:46:06;;;;;;;9.78;2.55;;;;;;;14.13;61.50;100109.29;1629917;87;21043;-72
2022/10/14 09:48:45;;;;;;;12.05;4.28;;;;;;;14.35;60.28;100110.45;1670863;86;21533;-72
2022/10/14 09:51:28;;;;;;;6.53;3.30;;;;;;;14.52;59.51;100112.31;1671199;86;21021;-72
2022/10/14 09:54:01;;;;;;;9.38;2.98;;;;;;;14.64;59.82;100113.88;1670676;85;21143;-71
2022/10/14 09:56:36;;;;;;;11.10;2.58;;;;;;;14.89;59.01;100108.30;1622534;85;21057;-72
2022/10/14 09:59:03;;;;;;;7.50;2.67;;;;;;;15.06;57.46;100112.70;1598426;89;21145;-73
2022/10/14 10:01:40;;;;;;;7.45;2.70;;;;;;;15.22;56.66;100114.09;1599594;89;21086;-73
2022/10/14 10:04:43;;;;;;;6.62;2.65;;;;;;;15.35;56.37;100112.56;1608686;89;21030;-72
2022/10/14 10:07:30;;;;;;;7.97;2.75;;;;;;;15.44;55.90;100109.46;1626915;87;21465;-72
2022/10/14 10:10:00;;;;;;;10.78;3.20;;;;;;;15.50;55.00;100113.94;1625563;86;21027;-72
2022/10/14 10:12:33;;;;;;;5.10;2.45;;;;;;;15.59;54.94;100105.26;1661556;85;21012;-75
2022/10/14 10:15:03;;;;;;;;;;;;;;;15.75;53.61;100104.84;1665680;86;21061;-72
2022/10/14 10:17:34;;;;;;;5.42;3.12;;;;;;;15.89;53.59;100093.61;1633631;87;20498;-73
2022/10/14 10:20:35;;;;;;;4.65;2.05;;;;;;;15.99;52.11;100100.03;1641321;86;21102;-72
2022/10/14 10:23:25;;;;;;;5.37;2.37;;;;;;;16.00;51.76;100106.98;1628952;87;21066;-71
2022/10/14 10:25:53;;;;;;;5.30;2.15;;;;;;;16.05;50.60;100101.03;1587327;87;21085;-75
2022/10/14 10:28:30;;;;;;;4.62;2.12;;;;;;;16.13;49.73;100094.91;1642622;87;21063;-74
2022/10/14 10:31:14;;;;;;;5.55;2.30;;;;;;;16.21;49.38;100095.33;1642373;87;21618;-72
2022/10/14 10:33:56;;;;;;;4.85;2.20;;;;;;;16.26;48.98;100097.70;1642615;87;21065;-75
2022/10/14 10:36:41;;;;;;;4.25;1.67;;;;;;;16.29;47.76;100086.58;1620927;87;21023;-71
2022/10/14 10:39:38;;;;;;;5.17;1.72;;;;;;;16.25;47.54;100088.98;1642537;87;21067;-73
2022/10/14 10:42:27;;;;;;;5.80;1.45;;;;;;;16.27;46.88;100085.81;1642772;87;21069;-73
2022/10/14 10:45:17;;;;;;;3.72;1.80;;;;;;;16.36;46.08;100081.84;1642709;87;21449;-72
2022/10/14 10:48:09;;;;;;;3.80;1.55;;;;;;;16.32;45.30;100075.91;1648950;87;22132;-72
2022/10/14 10:51:07;;;;;;;3.72;1.37;;;;;;;16.39;45.72;100081.64;1688307;85;21113;-73
2022/10/14 10:54:00;;;;;;;2.20;1.52;;;;;;;16.54;45.21;100075.09;1688069;84;21566;-75
2022/10/14 10:56:47;;;;;;;6.12;1.65;;;;;;;16.58;45.06;100066.59;1693747;84;20987;-74
2022/10/14 10:59:46;;;;;;;3.22;1.50;;;;;;;16.73;45.28;100069.67;1692602;84;21003;-74
2022/10/14 11:02:57;;;;;;;6.45;1.90;;;;;;;16.91;44.86;100070.39;1693614;84;21820;-74
2022/10/14 11:05:38;;;;;;;1.87;1.20;;;;;;;17.01;43.95;100066.28;1651750;86;21067;-73
2022/10/14 11:14:45;;;;;;;7.53;1.70;;;;;;;16.91;43.03;100055.95;1695563;83;20986;-74
2022/10/14 11:17:51;;;;;;;2.83;1.50;;;;;;;16.97;42.77;100061.32;1723737;83;21239;-74
2022/10/14 11:20:48;;;;;;;2.65;1.37;;;;;;;17.09;42.00;100061.91;1723621;83;21142;-74
2022/10/14 11:23:42;;;;;;;3.00;1.22;;;;;;;17.21;41.39;100054.59;1702228;83;21091;-74
2022/10/14 11:26:48;;;;;;;1.70;1.15;;;;;;;17.27;41.09;100056.87;1666639;86;20970;-73
2022/10/14 11:29:28;;;;;;;3.98;1.75;;;;;;;17.28;40.59;100048.05;1672769;83;21022;-75
2022/10/14 11:32:16;;;;;;;5.58;1.55;;;;;;;17.25;40.16;100046.06;1697652;83;21873;-76
2022/10/14 11:35:04;;;;;;;8.03;1.90;;;;;;;17.18;40.61;100045.61;1694811;83;21479;-74
2022/10/14 11:38:10;;;;;;;3.62;1.70;;;;;;;17.19;40.77;100048.58;1707349;83;21013;-72
2022/10/14 11:40:58;;;;;;;2.37;1.52;;;;;;;17.23;40.92;100048.78;1673754;83;20982;-75
2022/10/14 11:43:59;;;;;;;4.12;1.65;;;;;;;17.27;40.48;100047.66;1697249;83;20982;-74
2022/10/14 11:46:32;;;;;;;7.08;3.05;;;;;;;17.25;39.95;100046.06;1683492;84;22234;-74
2022/10/14 11:49:04;;;;;;;4.58;2.05;;;;;;;17.21;40.24;100046.24;1673087;84;21101;-73
2022/10/14 11:51:37;;;;;;;7.67;3.95;;;;;;;17.22;39.80;100035.26;1697970;83;21034;-72
2022/10/14 11:54:18;;;;;;;5.92;1.85;;;;;;;17.16;40.46;100042.22;1692345;84;21014;-73
2022/10/14 11:56:56;;;;;;;3.47;1.70;;;;;;;17.19;40.63;100043.32;1692506;84;20955;-74
2022/10/14 11:59:36;;;;;;;3.83;1.77;;;;;;;17.27;40.45;100038.94;1699347;83;21142;-72
2022/10/14 12:02:20;;;;;;;2.87;1.17;;;;;;;17.29;40.11;100039.69;1724902;83;21303;-72